createdAt,value
2019-05-22T10:14:15.791Z,98529.43
2019-05-22T10:19:25.374Z,98541.35
2019-05-22T10:24:30.982Z,98549.82
2019-05-22T10:29:36.827Z,98562.69
2019-05-22T10:34:43.251Z,98559.08
2019-05-22T10:39:49.074Z,98556.34
2019-05-22T10:44:55.795Z,98574.38
2019-05-22T10:50:01.260Z,98571.78
2019-05-22T10:55:08.252Z,98575.63
2019-05-22T11:00:16.346Z,98576.80
2019-05-22T11:05:23.294Z,98581.20
2019-05-22T11:10:29.300Z,98584.41
2019-05-22T11:15:36.552Z,98584.09
2019-05-22T11:20:43.345Z,98585.84
2019-05-22T11:25:53.235Z,98582.20
2019-05-22T11:31:04.505Z,98588.22
2019-05-22T11:36:12.031Z,98587.61
2019-05-22T11:41:20.562Z,98591.08
2019-05-22T11:46:26.116Z,98582.14
2019-05-22T11:51:31.636Z,98593.67
2019-05-22T11:56:46.563Z,98595.14
2019-05-22T12:01:52.396Z,98603.42
2019-05-22T12:06:57.948Z,98605.27
2019-05-22T12:12:08.110Z,98599.25
2019-05-22T12:17:16.523Z,98602.31
2019-05-22T12:22:22.282Z,98597.13
2019-05-22T12:27:27.604Z,98603.25
2019-05-22T12:32:33.195Z,98613.27
2019-05-22T12:37:38.984Z,98605.73
2019-05-22T12:42:45.290Z,98610.88
2019-05-22T12:47:55.899Z,98609.73
2019-05-22T12:53:06.367Z,98615.55
2019-05-22T12:58:11.761Z,98622.06
2019-05-22T13:03:20.168Z,98624.66
2019-05-22T13:08:27.473Z,98614.20
2019-05-22T13:13:33.666Z,98626.13
2019-05-22T13:18:44.253Z,98627.86
2019-05-22T13:23:52.558Z,98627.22
2019-05-22T13:28:58.585Z,98627.29
2019-05-22T13:34:04.879Z,98625.02
2019-05-22T13:39:11.915Z,98627.94
2019-05-22T13:44:21.117Z,98634.59
2019-05-22T13:49:32.823Z,98638.25
2019-05-22T13:54:40.462Z,98638.05
2019-05-22T13:59:46.423Z,98637.34
2019-05-22T14:04:52.974Z,98641.06
2019-05-22T14:09:59.760Z,98642.41
2019-05-22T14:15:05.995Z,98648.99
2019-05-22T14:20:12.218Z,98652.78
2019-05-22T14:25:20.587Z,98655.59
2019-05-22T14:30:28.113Z,98661.23
2019-05-22T14:35:47.583Z,98666.56
2019-05-22T14:40:44.360Z,98662.17
2019-05-22T14:45:50.150Z,98657.27
2019-05-22T14:50:56.694Z,98670.62
2019-05-22T14:56:03.750Z,98666.37
2019-05-22T15:01:09.879Z,98676.02
2019-05-22T15:06:16.359Z,98680.43
2019-05-22T15:11:22.420Z,98681.92
2019-05-22T15:16:30.061Z,98673.45
2019-05-22T15:21:36.259Z,98674.52
2019-05-22T15:26:42.159Z,98685.77
2019-05-22T15:31:48.439Z,98684.03
2019-05-22T15:36:54.314Z,98688.33
2019-05-22T15:42:09.272Z,98692.36
2019-05-22T15:47:15.158Z,98693.56
2019-05-22T15:52:23.976Z,98696.77
2019-05-22T15:57:36.639Z,98699.55
2019-05-22T16:02:44.512Z,98702.20
2019-05-22T16:07:52.622Z,98706.73
2019-05-22T16:13:00.186Z,98721.58
2019-05-22T16:18:12.040Z,98716.19
2019-05-22T16:23:16.332Z,98721.33
2019-05-22T16:28:30.950Z,98720.59
2019-05-22T16:33:35.877Z,98726.30
2019-05-22T16:38:42.685Z,98728.61
2019-05-22T16:43:50.656Z,98729.63
2019-05-22T16:48:57.784Z,98744.39
2019-05-22T16:54:09.687Z,98747.02
2019-05-22T16:59:16.757Z,98746.00
2019-05-22T17:04:22.633Z,98747.08
2019-05-22T17:09:28.489Z,98748.66
2019-05-22T17:14:40.415Z,98754.72
2019-05-22T17:19:49.067Z,98754.45
2019-05-22T17:24:54.918Z,98766.57
2019-05-22T17:30:02.382Z,98769.36
2019-05-22T17:35:10.998Z,98764.12
2019-05-22T17:40:20.823Z,98773.30
2019-05-22T17:45:31.300Z,98777.30
2019-05-22T17:50:37.394Z,98774.83
2019-05-22T17:55:42.814Z,98780.16
2019-05-22T18:00:51.444Z,98791.66
2019-05-22T18:05:57.273Z,98795.57
2019-05-22T18:11:09.148Z,98791.03
2019-05-22T18:16:16.895Z,98806.16
2019-05-22T18:21:24.130Z,98808.94
2019-05-22T18:26:30.734Z,98823.96
2019-05-22T18:31:36.590Z,98821.07
2019-05-22T18:36:43.104Z,98824.39
2019-05-22T18:41:48.520Z,98835.77
2019-05-22T18:46:53.832Z,98829.38
2019-05-22T18:52:00.922Z,98845.89
2019-05-22T18:57:06.797Z,98848.30
2019-05-22T19:02:13.568Z,98849.03
2019-05-22T19:07:18.872Z,98852.06
2019-05-22T19:12:24.806Z,98859.69
2019-05-22T19:17:30.885Z,98855.11
2019-05-22T19:22:36.183Z,98868.04
2019-05-22T19:27:42.075Z,98863.38
2019-05-22T19:32:47.534Z,98867.66
2019-05-22T19:37:53.833Z,98869.00
2019-05-22T19:42:59.146Z,98873.14
2019-05-22T19:48:05.812Z,98877.70
2019-05-22T19:53:18.930Z,98883.87
2019-05-22T19:58:22.004Z,98884.72
2019-05-22T20:03:28.615Z,98882.80
2019-05-22T20:08:36.341Z,98879.77
2019-05-22T20:13:41.216Z,98888.73
2019-05-22T20:18:47.327Z,98892.02
2019-05-22T20:23:54.080Z,98888.91
2019-05-22T20:29:00.289Z,98893.26
2019-05-22T20:34:06.289Z,98898.41
2019-05-22T20:39:13.971Z,98893.83
2019-05-22T20:44:20.315Z,98895.16
2019-05-22T20:49:26.563Z,98887.50
2019-05-22T20:54:32.752Z,98898.30
2019-05-22T20:59:38.975Z,98897.20
2019-05-22T21:04:45.789Z,98907.78
2019-05-22T21:09:52.318Z,98913.55
2019-05-22T21:14:59.388Z,98923.66
2019-05-22T21:20:06.123Z,98920.52
2019-05-22T21:25:12.431Z,98924.66
2019-05-22T21:30:19.428Z,98923.15
2019-05-22T21:35:24.950Z,98923.58
2019-05-22T21:40:30.669Z,98919.86
2019-05-22T21:45:36.759Z,98919.79
2019-05-22T21:50:42.291Z,98923.53
2019-05-22T21:56:03.375Z,98925.98
2019-05-22T22:01:26.432Z,98925.45
2019-05-22T22:06:33.356Z,98919.20
2019-05-22T22:11:39.748Z,98928.23
2019-05-22T22:16:46.968Z,98929.47
2019-05-22T22:21:52.603Z,98938.96
2019-05-22T22:26:59.007Z,98939.37
2019-05-22T22:32:06.234Z,98937.55
2019-05-22T22:37:11.947Z,98949.74
2019-05-22T22:42:19.277Z,98939.23
2019-05-22T22:47:37.712Z,98944.50
2019-05-22T22:52:45.095Z,98943.45
2019-05-22T22:57:52.212Z,98946.90
2019-05-22T23:02:59.930Z,98952.62
2019-05-22T23:08:06.301Z,98955.94
2019-05-22T23:13:12.117Z,98956.48
2019-05-22T23:18:49.839Z,98964.95
2019-05-22T23:23:53.694Z,98965.80
2019-05-22T23:28:59.071Z,98967.97
2019-05-22T23:34:05.648Z,98966.20
2019-05-22T23:39:12.924Z,98969.53
2019-05-22T23:44:23.518Z,98970.28
2019-05-22T23:49:30.252Z,98965.94
2019-05-22T23:54:36.324Z,98967.13
2019-05-22T23:59:44.802Z,98966.08
